Time,TemperatureF,DewpointF,PressureIn,WindDirection,WindDirectionDegrees,WindSpeedMPH,WindSpeedGustMPH,Humidity,HourlyPrecipIn,Conditions,Clouds,dailyrainin,SoftwareType,DateUTC
2013-04-04 16:22:00,66.9,63.6,29.95,NNE,23,1.0,3.0,89,0.24,,,0.24,Wunderground PWS Mod,2013-04-04 20:22:00,
2013-04-04 16:24:00,66.9,63.6,29.95,N/A,-737280,0.0,0.0,89,0.24,,,0.24,Wunderground PWS Mod,2013-04-04 20:24:00,
2013-04-04 16:26:00,68.9,63.9,29.96,North,9,2.0,2.0,84,0.25,,,0.22,Wunderground PWS Mod,2013-04-04 20:26:00,
2013-04-04 16:32:00,67.6,63.6,29.96,NW,309,1.0,3.0,87,0.10,,,0.23,Wunderground PWS Mod,2013-04-04 20:32:00,
2013-04-04 16:38:00,67.1,63.4,29.95,NNE,25,1.0,2.0,88,0.05,,,0.23,Wunderground PWS Mod,2013-04-04 20:38:00,
2013-04-04 16:44:00,66.8,63.5,29.95,NE,38,0.0,3.0,89,0.04,,,0.24,Wunderground PWS Mod,2013-04-04 20:44:00,
2013-04-04 16:50:00,66.6,63.6,29.97,North,9,0.0,4.0,90,0.08,,,0.25,Wunderground PWS Mod,2013-04-04 20:50:00,
2013-04-04 16:52:00,66.0,63.3,29.97,NW,315,0.0,2.0,91,0.31,,,0.31,Wunderground PWS Mod,2013-04-04 20:52:00,
2013-04-04 16:56:00,66.4,63.4,29.97,NNE,21,1.0,3.0,90,0.18,,,0.27,Wunderground PWS Mod,2013-04-04 20:56:00,
2013-04-04 17:02:00,66.1,63.4,29.97,NNW,328,1.0,5.0,91,0.13,,,0.28,Wunderground PWS Mod,2013-04-04 21:02:00,
2013-04-04 17:08:00,66.1,63.4,29.97,NW,319,1.0,5.0,91,0.10,,,0.29,Wunderground PWS Mod,2013-04-04 21:08:00,
2013-04-04 17:16:00,66.0,63.3,29.97,NW,311,1.0,2.0,91,0.17,,,0.32,Wunderground PWS Mod,2013-04-04 21:16:00,
2013-04-04 17:22:00,66.0,63.6,29.96,NNE,29,1.0,1.0,92,0.13,,,0.33,Wunderground PWS Mod,2013-04-04 21:22:00,
2013-04-04 17:32:00,65.8,63.4,29.96,North,360,0.0,0.0,92,0.08,,,0.35,Wunderground PWS Mod,2013-04-04 21:32:00,
2013-04-04 17:38:00,65.6,63.2,29.93,NE,52,0.0,3.0,92,0.09,,,0.36,Wunderground PWS Mod,2013-04-04 21:38:00,
2013-04-04 17:44:00,65.6,63.5,29.93,NE,52,0.0,0.0,93,0.10,,,0.37,Wunderground PWS Mod,2013-04-04 21:44:00,
2013-04-04 17:50:00,65.8,63.7,29.92,NNE,24,0.0,2.0,93,0.08,,,0.37,Wunderground PWS Mod,2013-04-04 21:50:00,
2013-04-04 17:56:00,65.8,63.7,29.92,NE,35,0.0,2.0,93,0.08,,,0.38,Wunderground PWS Mod,2013-04-04 21:56:00,
2013-04-04 18:02:00,65.8,63.7,29.92,NNW,331,0.0,2.0,93,0.05,,,0.38,Wunderground PWS Mod,2013-04-04 22:02:00,
2013-04-04 18:10:00,65.8,63.7,29.89,WSW,237,0.0,1.0,93,0.00,,,0.38,Wunderground PWS Mod,2013-04-04 22:10:00,
2013-04-04 18:16:00,66.0,63.9,29.89,WSW,237,0.0,0.0,93,0.00,,,0.38,Wunderground PWS Mod,2013-04-04 22:16:00,
2013-04-04 18:24:00,66.0,63.9,29.87,ESE,113,0.0,0.0,93,0.00,,,0.38,Wunderground PWS Mod,2013-04-04 22:24:00,
2013-04-04 18:30:00,66.1,64.0,29.87,ESE,113,0.0,0.0,93,0.00,,,0.38,Wunderground PWS Mod,2013-04-04 22:30:00,
2013-04-04 18:36:00,66.0,63.9,29.86,SSE,147,0.0,3.0,93,0.00,,,0.38,Wunderground PWS Mod,2013-04-04 22:36:00,
2013-04-04 18:42:00,66.0,63.9,29.86,East,101,0.0,0.0,93,0.00,,,0.38,Wunderground PWS Mod,2013-04-04 22:42:00,
2013-04-04 18:48:00,65.8,63.7,29.86,East,91,0.0,0.0,93,0.00,,,0.38,Wunderground PWS Mod,2013-04-04 22:48:00,
2013-04-04 18:54:00,65.6,63.8,29.86,ESE,111,0.0,0.0,94,0.00,,,0.38,Wunderground PWS Mod,2013-04-04 22:54:00,
2013-04-04 19:00:00,65.6,63.8,29.86,SSE,165,0.0,0.0,94,0.00,,,0.38,Wunderground PWS Mod,2013-04-04 23:00:00,
2013-04-04 19:06:00,65.6,63.8,29.84,SSE,160,0.0,0.0,94,0.00,,,0.38,Wunderground PWS Mod,2013-04-04 23:06:00,
2013-04-04 19:12:00,65.5,63.7,29.84,SSE,150,0.0,0.0,94,0.00,,,0.38,Wunderground PWS Mod,2013-04-04 23:12:00,
2013-04-04 19:18:00,65.5,63.7,29.84,SSE,148,0.0,1.0,94,0.00,,,0.38,Wunderground PWS Mod,2013-04-04 23:18:00,
2013-04-04 19:24:00,65.5,63.7,29.85,SSE,148,0.0,0.0,94,0.00,,,0.38,Wunderground PWS Mod,2013-04-04 23:24:00,
2013-04-04 19:26:00,65.5,63.7,29.84,N/A,-737280,0.0,0.0,94,0.00,,,0.38,Wunderground PWS Mod,2013-04-04 23:26:00,
2013-04-04 19:30:00,65.5,63.7,29.85,SSE,148,0.0,0.0,94,0.00,,,0.38,Wunderground PWS Mod,2013-04-04 23:30:00,
2013-04-04 19:36:00,65.5,63.7,29.84,SSE,148,0.0,0.0,94,0.00,,,0.38,Wunderground PWS Mod,2013-04-04 23:36:00,
2013-04-04 19:42:00,65.5,63.7,29.84,SSE,148,0.0,0.0,94,0.00,,,0.38,Wunderground PWS Mod,2013-04-04 23:42:00,
2013-04-04 19:48:00,65.3,63.5,29.84,SSE,148,0.0,0.0,94,0.00,,,0.38,Wunderground PWS Mod,2013-04-04 23:48:00,
2013-04-04 19:50:00,65.3,63.5,29.85,N/A,-737280,0.0,0.0,94,0.00,,,0.38,Wunderground PWS Mod,2013-04-04 23:50:00,
2013-04-04 19:54:00,65.3,63.5,29.84,SSE,148,0.0,0.0,94,0.00,,,0.38,Wunderground PWS Mod,2013-04-04 23:54:00,
2013-04-04 20:00:00,65.3,63.5,29.84,SSE,148,0.0,0.0,94,0.00,,,0.38,Wunderground PWS Mod,2013-04-05 00:00:00,
2013-04-04 20:06:00,65.3,63.5,29.85,NNE,25,0.0,0.0,94,0.00,,,0.38,Wunderground PWS Mod,2013-04-05 00:06:00,
2013-04-04 20:12:00,65.3,63.5,29.85,NNE,17,0.0,0.0,94,0.00,,,0.38,Wunderground PWS Mod,2013-04-05 00:12:00,
2013-04-04 20:18:00,65.3,63.5,29.85,SE,146,0.0,0.0,94,0.00,,,0.38,Wunderground PWS Mod,2013-04-05 00:18:00,
2013-04-04 20:24:00,65.3,63.5,29.86,East,79,0.0,1.0,94,0.00,,,0.38,Wunderground PWS Mod,2013-04-05 00:24:00,
2013-04-04 20:30:00,65.3,63.8,29.86,NE,48,0.0,0.0,95,0.00,,,0.38,Wunderground PWS Mod,2013-04-05 00:30:00,
2013-04-04 20:36:00,65.3,63.8,29.86,NE,48,0.0,0.0,95,0.00,,,0.38,Wunderground PWS Mod,2013-04-05 00:36:00,
2013-04-04 20:42:00,65.5,64.0,29.86,NNE,22,0.0,0.0,95,0.00,,,0.38,Wunderground PWS Mod,2013-04-05 00:42:00,
2013-04-04 20:46:00,65.5,64.0,29.87,N/A,-737280,0.0,0.0,95,0.00,,,0.38,Wunderground PWS Mod,2013-04-05 00:46:00,
2013-04-04 20:48:00,65.5,64.0,29.86,NNE,25,0.0,0.0,95,0.00,,,0.38,Wunderground PWS Mod,2013-04-05 00:48:00,
2013-04-04 20:54:00,65.5,64.0,29.88,NNE,25,0.0,0.0,95,0.00,,,0.38,Wunderground PWS Mod,2013-04-05 00:54:00,
2013-04-04 21:00:00,65.5,64.0,29.88,NNE,25,0.0,0.0,95,0.00,,,0.38,Wunderground PWS Mod,2013-04-05 01:00:00,
2013-04-04 21:06:00,65.5,64.0,29.87,NNE,25,0.0,0.0,95,0.00,,,0.38,Wunderground PWS Mod,2013-04-05 01:06:00,
2013-04-04 21:12:00,65.5,64.0,29.87,NNE,25,0.0,0.0,95,0.00,,,0.38,Wunderground PWS Mod,2013-04-05 01:12:00,
2013-04-04 21:22:00,65.6,64.1,29.89,N/A,-737280,0.0,0.0,95,0.00,,,0.38,Wunderground PWS Mod,2013-04-05 01:22:00,
2013-04-04 21:24:00,65.5,64.0,29.88,NNE,25,0.0,0.0,95,0.00,,,0.38,Wunderground PWS Mod,2013-04-05 01:24:00,
2013-04-04 21:30:00,65.5,64.0,29.88,NNE,25,0.0,0.0,95,0.00,,,0.38,Wunderground PWS Mod,2013-04-05 01:30:00,
2013-04-04 21:36:00,65.6,64.1,29.89,NNE,25,0.0,0.0,95,0.00,,,0.38,Wunderground PWS Mod,2013-04-05 01:36:00,
2013-04-04 21:42:00,65.6,64.1,29.89,NNE,25,0.0,0.0,95,0.00,,,0.38,Wunderground PWS Mod,2013-04-05 01:42:00,
2013-04-04 21:48:00,65.6,64.1,29.89,NNE,25,0.0,0.0,95,0.00,,,0.38,Wunderground PWS Mod,2013-04-05 01:48:00,
2013-04-04 22:04:00,65.8,64.3,29.93,NNE,25,0.0,0.0,95,0.00,,,0.38,Wunderground PWS Mod,2013-04-05 02:04:00,
2013-04-04 22:10:00,65.8,64.3,29.93,North,9,0.0,0.0,95,0.00,,,0.38,Wunderground PWS Mod,2013-04-05 02:10:00,
2013-04-04 22:16:00,65.8,64.3,29.93,NNE,15,0.0,2.0,95,0.00,,,0.38,Wunderground PWS Mod,2013-04-05 02:16:00,
2013-04-04 22:18:00,66.0,64.5,29.97,N/A,-737280,0.0,0.0,95,0.00,,,0.38,Wunderground PWS Mod,2013-04-05 02:18:00,
2013-04-04 22:22:00,65.8,64.3,29.94,NNE,15,0.0,0.0,95,0.00,,,0.38,Wunderground PWS Mod,2013-04-05 02:22:00,
2013-04-04 22:28:00,65.8,64.3,29.94,NNE,15,0.0,0.0,95,0.00,,,0.38,Wunderground PWS Mod,2013-04-05 02:28:00,
2013-04-04 22:34:00,66.0,64.5,29.97,NNE,15,0.0,0.0,95,0.00,,,0.38,Wunderground PWS Mod,2013-04-05 02:34:00,
2013-04-04 22:40:00,66.0,64.5,29.97,NNE,15,0.0,0.0,95,0.00,,,0.38,Wunderground PWS Mod,2013-04-05 02:40:00,
2013-04-04 22:46:00,66.0,64.5,29.97,NNE,15,0.0,0.0,95,0.17,,,0.40,Wunderground PWS Mod,2013-04-05 02:46:00,
2013-04-04 22:52:00,66.0,64.5,29.96,NNE,15,0.0,0.0,95,0.09,,,0.41,Wunderground PWS Mod,2013-04-05 02:52:00,
2013-04-04 22:58:00,66.0,64.5,29.96,NNE,15,0.0,0.0,95,0.09,,,0.41,Wunderground PWS Mod,2013-04-05 02:58:00,
2013-04-04 23:04:00,66.1,64.6,29.95,NNE,15,0.0,0.0,95,0.07,,,0.42,Wunderground PWS Mod,2013-04-05 03:04:00,
2013-04-04 23:10:00,66.1,64.6,29.95,NNE,15,0.0,0.0,95,0.06,,,0.42,Wunderground PWS Mod,2013-04-05 03:10:00,
2013-04-04 23:16:00,66.0,64.5,29.95,NNE,15,0.0,0.0,95,0.04,,,0.42,Wunderground PWS Mod,2013-04-05 03:16:00,
2013-04-04 23:22:00,66.0,64.5,29.94,NNE,15,0.0,0.0,95,0.00,,,0.42,Wunderground PWS Mod,2013-04-05 03:22:00,
2013-04-04 23:28:00,66.0,64.5,29.94,NNE,15,0.0,0.0,95,0.00,,,0.42,Wunderground PWS Mod,2013-04-05 03:28:00,
2013-04-04 23:34:00,66.0,64.5,29.94,NNE,15,0.0,0.0,95,0.00,,,0.42,Wunderground PWS Mod,2013-04-05 03:34:00,
2013-04-04 23:36:00,66.0,64.5,29.95,N/A,-737280,0.0,0.0,95,0.01,,,0.42,Wunderground PWS Mod,2013-04-05 03:36:00,
2013-04-04 23:40:00,66.0,64.5,29.94,NNE,15,0.0,0.0,95,0.00,,,0.42,Wunderground PWS Mod,2013-04-05 03:40:00,
2013-04-04 23:46:00,65.8,64.3,29.94,NNE,15,0.0,0.0,95,0.00,,,0.42,Wunderground PWS Mod,2013-04-05 03:46:00,
2013-04-04 23:52:00,66.0,64.5,29.95,NNE,15,0.0,0.0,95,0.00,,,0.42,Wunderground PWS Mod,2013-04-05 03:52:00,
2013-04-04 23:58:00,66.1,64.6,29.95,NNE,15,0.0,0.0,95,0.00,,,0.42,Wunderground PWS Mod,2013-04-05 03:58:00,